Hawthorn Wds, Illinois
Current Conditions -  °F | °C
As of 7:52 PM on Thursday 20 Nov 2014 (Local Time) from KPWK Reporting Station
Clear Clear  
Wind Chill:   Ceiling: Unl
Heat Index: 20°   Visibility: 10mi
Dew Point:   Wind: 12mph
Humidity: 50%   Direction: 280°W
Pressure: 30.23"   Gusts: NA
Location:  42.201°N, 88.0504°W
Report Text: KPWK 210152Z 28010KT 10SM CLR M07/M16 A3023 RMK AO2 SLP247 T10671156
Loading
Personal Weather Stations






























Interactive Weather Map New forecast layout! Learn more

10-Day Weather Forecast

Advertisements
Track Severe Weather on mobile